createdAt,value
2018-12-25T00:00:31.479Z,2.22
2018-12-25T00:01:31.505Z,2.28
2018-12-25T00:02:31.558Z,2.27
2018-12-25T00:03:31.710Z,2.28
2018-12-25T00:04:31.649Z,2.22
2018-12-25T00:05:31.667Z,2.28
2018-12-25T00:06:31.706Z,2.31
2018-12-25T00:07:31.743Z,2.23
2018-12-25T00:08:31.788Z,2.26
2018-12-25T00:09:31.847Z,2.28
2018-12-25T00:10:31.863Z,2.33
2018-12-25T00:11:31.915Z,2.23
2018-12-25T00:12:31.949Z,2.28
2018-12-25T00:13:31.980Z,2.33
2018-12-25T00:14:32.059Z,2.26
2018-12-25T00:15:32.063Z,2.15
2018-12-25T00:16:32.107Z,2.17
2018-12-25T00:17:32.149Z,2.06
2018-12-25T00:18:32.180Z,2.09
2018-12-25T00:19:32.246Z,2.06
2018-12-25T00:20:33.345Z,2.09
2018-12-25T00:21:32.328Z,2.08
2018-12-25T00:22:32.334Z,2.09
2018-12-25T00:23:32.384Z,2.15
2018-12-25T00:24:32.416Z,2.19
2018-12-25T00:25:32.478Z,2.23
2018-12-25T00:26:32.502Z,2.23
2018-12-25T00:27:32.535Z,2.26
2018-12-25T00:28:32.663Z,2.15
2018-12-25T00:29:32.650Z,2.26
2018-12-25T00:30:32.688Z,2.26
2018-12-25T00:31:32.702Z,2.23
2018-12-25T00:32:32.738Z,2.17
2018-12-25T00:33:32.786Z,2.16
2018-12-25T00:34:32.814Z,2.09
2018-12-25T00:35:32.878Z,2.01
2018-12-25T00:36:32.891Z,1.97
2018-12-25T00:37:32.945Z,1.85
2018-12-25T00:38:32.974Z,1.90
2018-12-25T00:39:33.024Z,1.89
2018-12-25T00:40:33.073Z,1.97
2018-12-25T00:41:33.104Z,1.93
2018-12-25T00:42:33.133Z,1.93
2018-12-25T00:43:33.171Z,1.90
2018-12-25T00:44:33.217Z,1.90
2018-12-25T00:45:33.273Z,1.97
2018-12-25T00:46:33.316Z,1.97
2018-12-25T00:47:33.327Z,1.99
2018-12-25T00:48:33.376Z,1.94
2018-12-25T00:49:33.408Z,1.91
2018-12-25T00:50:33.468Z,2.02
2018-12-25T00:51:33.490Z,2.06
2018-12-25T00:52:33.529Z,2.10
2018-12-25T00:53:33.610Z,2.13
2018-12-25T00:54:33.610Z,2.13
2018-12-25T00:55:33.664Z,2.04
2018-12-25T00:56:33.703Z,1.94
2018-12-25T00:57:33.730Z,1.94
2018-12-25T00:58:33.787Z,1.94
2018-12-25T00:59:33.807Z,1.91
2018-12-25T01:00:33.907Z,1.91
2018-12-25T01:01:33.906Z,1.98
2018-12-25T01:02:33.925Z,1.93
2018-12-25T01:03:33.965Z,1.94
2018-12-25T01:04:34.002Z,1.97
2018-12-25T01:05:34.047Z,1.93
2018-12-25T01:06:34.100Z,1.93
2018-12-25T01:07:34.122Z,1.97
2018-12-25T01:08:34.159Z,2.04
2018-12-25T01:09:34.204Z,2.08
2018-12-25T01:10:34.241Z,2.06
2018-12-25T01:11:34.321Z,2.04
2018-12-25T01:12:34.318Z,1.97
2018-12-25T01:13:34.359Z,2.06
2018-12-25T01:14:34.398Z,1.99
2018-12-25T01:15:34.444Z,2.02
2018-12-25T01:16:34.579Z,2.08
2018-12-25T01:17:34.533Z,2.08
2018-12-25T01:18:34.562Z,2.13
2018-12-25T01:19:34.605Z,2.13
2018-12-25T01:20:34.633Z,2.15
2018-12-25T01:21:34.698Z,2.10
2018-12-25T01:22:34.737Z,2.13
2018-12-25T01:23:34.767Z,2.10
2018-12-25T01:24:34.791Z,2.17
2018-12-25T01:25:34.864Z,2.16
2018-12-25T01:26:34.870Z,2.13
2018-12-25T01:27:34.933Z,2.26
2018-12-25T01:28:34.955Z,2.27
2018-12-25T01:29:34.993Z,2.22
2018-12-25T01:30:35.035Z,2.30
2018-12-25T01:31:35.078Z,2.35
2018-12-25T01:32:35.133Z,2.27
2018-12-25T01:33:35.158Z,2.38
2018-12-25T01:34:35.186Z,2.35
2018-12-25T01:35:35.229Z,2.38
2018-12-25T01:36:35.267Z,2.38
2018-12-25T01:37:35.336Z,2.27
2018-12-25T01:38:35.397Z,2.30
2018-12-25T01:39:35.386Z,2.26
2018-12-25T01:40:35.432Z,2.28
2018-12-25T01:41:35.464Z,2.31
2018-12-25T01:42:35.549Z,2.31
2018-12-25T01:43:35.557Z,2.27
2018-12-25T01:44:35.583Z,2.28
2018-12-25T01:45:35.631Z,2.23
2018-12-25T01:46:35.665Z,2.26
2018-12-25T01:47:35.721Z,2.20
2018-12-25T01:48:35.762Z,2.20
2018-12-25T01:49:35.780Z,2.17
2018-12-25T01:50:35.826Z,2.17
2018-12-25T01:51:35.857Z,2.15
2018-12-25T01:52:35.896Z,2.12
2018-12-25T01:53:35.964Z,2.13
2018-12-25T01:54:35.975Z,2.23
2018-12-25T01:55:36.027Z,2.22
2018-12-25T01:56:36.064Z,2.17
2018-12-25T01:57:36.152Z,2.15
2018-12-25T01:58:36.157Z,2.10
2018-12-25T01:59:36.194Z,2.08
2018-12-25T02:00:36.212Z,2.06
2018-12-25T02:01:36.251Z,2.01
2018-12-25T02:02:36.292Z,1.98
2018-12-25T02:03:36.330Z,1.83
2018-12-25T02:04:36.389Z,1.91
2018-12-25T02:05:36.416Z,1.85
2018-12-25T02:06:36.547Z,1.82
2018-12-25T02:07:36.486Z,1.73
2018-12-25T02:08:36.526Z,1.75
2018-12-25T02:09:36.603Z,1.69
2018-12-25T02:10:36.604Z,1.69
2018-12-25T02:11:36.647Z,1.65
2018-12-25T02:12:36.691Z,1.65
2018-12-25T02:13:36.723Z,1.65
2018-12-25T02:14:36.795Z,1.64
2018-12-25T02:15:36.803Z,1.68
2018-12-25T02:16:36.843Z,1.64
2018-12-25T02:17:36.880Z,1.61
2018-12-25T02:18:36.920Z,1.68
2018-12-25T02:19:40.329Z,1.61
2018-12-25T02:20:37.002Z,1.57
2018-12-25T02:21:37.045Z,1.65
2018-12-25T02:22:37.075Z,1.69
2018-12-25T02:23:37.113Z,1.64
2018-12-25T02:24:37.222Z,1.71
2018-12-25T02:25:37.193Z,1.64
2018-12-25T02:26:37.234Z,1.57
2018-12-25T02:27:37.274Z,1.50
2018-12-25T02:28:37.312Z,1.50
2018-12-25T02:29:37.370Z,1.47
2018-12-25T02:30:37.398Z,1.47
2018-12-25T02:31:37.450Z,1.37
2018-12-25T02:32:37.475Z,1.40
2018-12-25T02:33:37.506Z,1.42
2018-12-25T02:34:37.564Z,1.50
2018-12-25T02:35:37.610Z,1.51
2018-12-25T02:36:37.622Z,1.52
2018-12-25T02:37:37.667Z,1.46
2018-12-25T02:38:37.704Z,1.47
2018-12-25T02:39:37.791Z,1.43
2018-12-25T02:40:37.791Z,1.43
2018-12-25T02:41:37.822Z,1.39
2018-12-25T02:42:37.862Z,1.39
2018-12-25T02:43:37.905Z,1.39
2018-12-25T02:44:37.973Z,1.36
2018-12-25T02:45:38.005Z,1.37
2018-12-25T02:46:38.033Z,1.34
2018-12-25T02:47:38.056Z,1.36
2018-12-25T02:48:38.103Z,1.36
2018-12-25T02:49:38.140Z,1.51
2018-12-25T02:50:38.197Z,1.50
2018-12-25T02:51:38.215Z,1.55
2018-12-25T02:52:38.252Z,1.55
2018-12-25T02:53:38.301Z,1.55
2018-12-25T02:54:38.334Z,1.60
2018-12-25T02:55:38.410Z,1.62
2018-12-25T02:56:38.497Z,1.69
2018-12-25T02:57:38.449Z,1.68
2018-12-25T02:58:38.489Z,1.58
2018-12-25T02:59:38.526Z,1.64
2018-12-25T03:00:38.590Z,1.64
2018-12-25T03:01:38.609Z,1.64
2018-12-25T03:02:38.652Z,1.83
2018-12-25T03:03:38.690Z,1.83
2018-12-25T03:04:38.723Z,1.76
2018-12-25T03:05:38.854Z,1.78
2018-12-25T03:06:38.830Z,1.71
2018-12-25T03:07:38.843Z,1.62
2018-12-25T03:08:38.884Z,1.72
2018-12-25T03:09:38.927Z,1.68
2018-12-25T03:10:38.959Z,1.64
2018-12-25T03:11:39.017Z,1.64
2018-12-25T03:12:39.038Z,1.60
2018-12-25T03:13:39.076Z,1.68
2018-12-25T03:14:39.127Z,1.69
2018-12-25T03:15:39.171Z,1.72
2018-12-25T03:16:39.219Z,1.72
2018-12-25T03:17:39.251Z,1.65
2018-12-25T03:18:39.280Z,1.75
2018-12-25T03:19:39.312Z,1.71
2018-12-25T03:20:39.400Z,1.73
2018-12-25T03:21:39.501Z,1.72
2018-12-25T03:22:39.445Z,1.64
2018-12-25T03:23:39.468Z,1.71
2018-12-25T03:24:39.517Z,1.65
2018-12-25T03:25:39.549Z,1.61
2018-12-25T03:26:39.584Z,1.62
2018-12-25T03:27:39.649Z,1.65
2018-12-25T03:28:39.669Z,1.64
2018-12-25T03:29:39.698Z,1.71
2018-12-25T03:30:39.741Z,1.72
2018-12-25T03:31:39.784Z,1.71
2018-12-25T03:32:39.838Z,1.79
2018-12-25T03:33:39.858Z,1.72
2018-12-25T03:34:39.899Z,1.71
2018-12-25T03:35:39.939Z,1.65
2018-12-25T03:36:39.984Z,1.69
2018-12-25T03:37:40.047Z,1.60
2018-12-25T03:38:40.054Z,1.61
2018-12-25T03:39:40.141Z,1.62
2018-12-25T03:40:40.141Z,1.52
2018-12-25T03:41:40.180Z,1.52
2018-12-25T03:42:40.237Z,1.64
2018-12-25T03:43:40.266Z,1.72
2018-12-25T03:44:40.288Z,1.75
2018-12-25T03:45:40.332Z,1.80
2018-12-25T03:46:40.420Z,1.75
2018-12-25T03:47:40.424Z,1.76
2018-12-25T03:48:40.467Z,1.75
2018-12-25T03:49:40.485Z,1.83
2018-12-25T03:50:40.528Z,1.87
2018-12-25T03:51:40.582Z,1.94
2018-12-25T03:52:40.605Z,1.93
2018-12-25T03:53:40.731Z,1.99
2018-12-25T03:54:40.695Z,2.08
2018-12-25T03:55:40.722Z,2.09
2018-12-25T03:56:40.767Z,2.17
2018-12-25T03:57:40.802Z,2.15
2018-12-25T03:58:41.200Z,2.20
2018-12-25T03:59:40.895Z,2.28
2018-12-25T04:00:40.919Z,2.30
2018-12-25T04:01:40.960Z,2.30
2018-12-25T04:02:41.000Z,2.31
2018-12-25T04:03:41.061Z,2.28
2018-12-25T04:04:41.078Z,2.23
2018-12-25T04:05:41.137Z,2.22
2018-12-25T04:06:41.155Z,2.27
2018-12-25T04:07:41.219Z,2.27
2018-12-25T04:08:41.253Z,2.34
2018-12-25T04:09:41.273Z,2.37
2018-12-25T04:10:41.330Z,2.31
2018-12-25T04:11:41.415Z,2.37
2018-12-25T04:12:41.389Z,2.31
2018-12-25T04:13:41.456Z,2.35
2018-12-25T04:14:41.496Z,2.44
2018-12-25T04:15:41.630Z,2.45
2018-12-25T04:16:41.550Z,2.44
2018-12-25T04:17:41.593Z,2.51
2018-12-25T04:18:41.647Z,2.49
2018-12-25T04:19:41.697Z,2.52
2018-12-25T04:20:41.709Z,2.53
2018-12-25T04:21:41.745Z,2.51
2018-12-25T04:22:41.782Z,2.48
2018-12-25T04:23:41.824Z,2.51
2018-12-25T04:24:41.894Z,2.51
2018-12-25T04:25:41.922Z,2.48
2018-12-25T04:26:41.941Z,2.58
2018-12-25T04:27:41.980Z,2.61
2018-12-25T04:28:42.025Z,2.64
2018-12-25T04:29:42.068Z,2.61
2018-12-25T04:30:42.120Z,2.44
2018-12-25T04:31:42.139Z,2.55
2018-12-25T04:32:42.182Z,2.46
2018-12-25T04:33:42.218Z,2.48
2018-12-25T04:34:42.410Z,2.46
2018-12-25T04:35:42.325Z,2.51
2018-12-25T04:36:42.398Z,2.58
2018-12-25T04:37:42.385Z,2.58
2018-12-25T04:38:42.416Z,2.63
2018-12-25T04:39:42.459Z,2.51
2018-12-25T04:40:42.519Z,2.61
2018-12-25T04:41:42.541Z,2.63
2018-12-25T04:42:42.576Z,2.63
2018-12-25T04:43:42.614Z,2.61
2018-12-25T04:44:42.657Z,2.58
2018-12-25T04:45:42.721Z,2.59
2018-12-25T04:46:42.732Z,2.61
2018-12-25T04:47:42.774Z,2.67
2018-12-25T04:48:42.810Z,2.61
2018-12-25T04:49:42.855Z,2.64
2018-12-25T04:50:42.919Z,2.56
2018-12-25T04:51:42.970Z,2.59
2018-12-25T04:52:42.979Z,2.66
2018-12-25T04:53:43.084Z,2.59
2018-12-25T04:54:43.051Z,2.63
2018-12-25T04:55:43.092Z,2.64
2018-12-25T04:56:43.151Z,2.67
2018-12-25T04:57:43.169Z,2.70
2018-12-25T04:58:43.209Z,2.61
2018-12-25T04:59:43.289Z,2.71
2018-12-25T05:00:43.845Z,2.67
2018-12-25T05:01:43.351Z,2.56
2018-12-25T05:02:43.393Z,2.73
2018-12-25T05:03:43.416Z,2.64
2018-12-25T05:04:43.449Z,2.55
2018-12-25T05:05:44.143Z,2.58
2018-12-25T05:06:43.546Z,2.58
2018-12-25T05:07:43.568Z,2.44
2018-12-25T05:08:43.607Z,2.52
2018-12-25T05:09:43.650Z,2.40
2018-12-25T05:10:43.693Z,2.37
2018-12-25T05:11:43.763Z,2.37
2018-12-25T05:12:43.770Z,2.28
2018-12-25T05:13:43.810Z,2.31
2018-12-25T05:14:43.847Z,2.27
2018-12-25T05:15:43.893Z,2.30
2018-12-25T05:16:43.948Z,2.22
2018-12-25T05:17:43.991Z,2.27
2018-12-25T05:18:44.032Z,2.28
2018-12-25T05:19:44.046Z,2.27
2018-12-25T05:20:44.086Z,2.27
2018-12-25T05:21:44.147Z,2.27
2018-12-25T05:22:44.167Z,2.23
2018-12-25T05:23:44.225Z,2.15
2018-12-25T05:24:44.302Z,2.17
2018-12-25T05:25:44.285Z,2.16
2018-12-25T05:26:44.320Z,2.20
2018-12-25T05:27:44.397Z,2.20
2018-12-25T05:28:44.424Z,2.17
2018-12-25T05:29:44.440Z,2.16
2018-12-25T05:30:44.481Z,2.15
2018-12-25T05:31:44.522Z,2.27
2018-12-25T05:32:44.580Z,2.27
2018-12-25T05:33:44.609Z,2.26
2018-12-25T05:34:44.638Z,2.22
2018-12-25T05:35:44.680Z,2.27
2018-12-25T05:36:44.750Z,2.20
2018-12-25T05:37:44.758Z,2.23
2018-12-25T05:38:44.815Z,2.27
2018-12-25T05:39:44.842Z,2.19
2018-12-25T05:40:44.883Z,2.22
2018-12-25T05:41:44.913Z,2.15
2018-12-25T05:42:44.958Z,2.20
2018-12-25T05:43:45.021Z,2.13
2018-12-25T05:44:45.041Z,2.06
2018-12-25T05:45:45.083Z,2.10
2018-12-25T05:46:45.118Z,2.01
2018-12-25T05:47:45.152Z,1.98
2018-12-25T05:48:45.214Z,1.90
2018-12-25T05:49:45.304Z,1.93
2018-12-25T05:50:46.762Z,1.91
2018-12-25T05:51:45.312Z,1.78
2018-12-25T05:52:45.353Z,1.76
2018-12-25T05:53:45.420Z,1.83
2018-12-25T05:54:45.428Z,1.76
2018-12-25T05:55:45.467Z,1.85
2018-12-25T05:56:45.507Z,1.78
2018-12-25T05:57:45.550Z,1.75
2018-12-25T05:58:45.616Z,1.68
2018-12-25T05:59:45.635Z,1.60
2018-12-25T06:00:45.665Z,1.71
2018-12-25T06:01:45.815Z,1.71
2018-12-25T06:02:45.751Z,1.62
2018-12-25T06:03:45.802Z,1.68
2018-12-25T06:04:45.847Z,1.72
2018-12-25T06:05:45.881Z,1.75
2018-12-25T06:06:45.902Z,1.65
2018-12-25T06:07:45.944Z,1.55
2018-12-25T06:08:45.988Z,1.62
2018-12-25T06:09:46.047Z,1.51
2018-12-25T06:10:46.061Z,1.43
2018-12-25T06:11:46.096Z,1.44
2018-12-25T06:12:46.134Z,1.37
2018-12-25T06:13:46.177Z,1.34
2018-12-25T06:14:46.249Z,1.37
2018-12-25T06:15:46.258Z,1.33
2018-12-25T06:16:46.300Z,1.34
2018-12-25T06:17:46.334Z,1.33
2018-12-25T06:18:46.389Z,1.29
2018-12-25T06:19:46.432Z,1.29
2018-12-25T06:20:54.817Z,1.36
2018-12-25T06:21:46.529Z,1.33
2018-12-25T06:22:46.526Z,1.40
2018-12-25T06:23:46.566Z,1.40
2018-12-25T06:24:46.605Z,1.43
2018-12-25T06:25:46.678Z,1.47
2018-12-25T06:26:46.683Z,1.42
2018-12-25T06:27:46.720Z,1.42
2018-12-25T06:28:46.765Z,1.36
2018-12-25T06:29:46.801Z,1.39
2018-12-25T06:30:46.875Z,1.36
2018-12-25T06:31:46.882Z,1.39
2018-12-25T06:32:46.917Z,1.29
2018-12-25T06:33:46.964Z,1.36
2018-12-25T06:34:46.998Z,1.19
2018-12-25T06:35:47.077Z,1.12
2018-12-25T06:36:47.081Z,1.19
2018-12-25T06:37:47.113Z,1.22
2018-12-25T06:38:47.149Z,1.15
2018-12-25T06:39:47.252Z,1.10
2018-12-25T06:40:47.270Z,1.07
2018-12-25T06:41:47.267Z,1.08
2018-12-25T06:42:47.313Z,1.04
2018-12-25T06:43:47.361Z,1.03
2018-12-25T06:44:47.382Z,1.01
2018-12-25T06:45:47.496Z,1.12
2018-12-25T06:46:47.554Z,1.08
2018-12-25T06:47:47.501Z,1.08
2018-12-25T06:48:47.541Z,1.14
2018-12-25T06:49:47.583Z,1.15
2018-12-25T06:50:47.640Z,1.18
2018-12-25T06:51:47.678Z,1.16
2018-12-25T06:52:47.694Z,1.32
2018-12-25T06:53:47.739Z,1.32
2018-12-25T06:54:47.774Z,1.34
2018-12-25T06:55:47.834Z,1.43
2018-12-25T06:56:48.180Z,1.47
2018-12-25T06:57:47.889Z,1.57
2018-12-25T06:58:47.929Z,1.58
2018-12-25T06:59:47.968Z,1.69
2018-12-25T07:00:48.006Z,1.71
2018-12-25T07:01:48.044Z,1.79
2018-12-25T07:02:48.113Z,1.68
2018-12-25T07:03:48.124Z,1.76
2018-12-25T07:04:48.189Z,1.65
2018-12-25T07:05:48.200Z,1.78
2018-12-25T07:06:48.238Z,1.78
2018-12-25T07:07:48.297Z,1.79
2018-12-25T07:08:48.331Z,1.71
2018-12-25T07:09:48.357Z,1.76
2018-12-25T07:10:48.408Z,1.64
2018-12-25T07:11:48.460Z,1.64
2018-12-25T07:12:48.495Z,1.61
2018-12-25T07:13:48.512Z,1.62
2018-12-25T07:14:48.551Z,1.72
2018-12-25T07:15:48.590Z,1.75
2018-12-25T07:16:48.629Z,1.71
2018-12-25T07:17:48.700Z,1.69
2018-12-25T07:18:48.736Z,1.65
2018-12-25T07:19:48.752Z,1.72
2018-12-25T07:20:48.787Z,1.69
2018-12-25T07:21:48.825Z,1.62
2018-12-25T07:22:48.889Z,1.68
2018-12-25T07:23:48.934Z,1.64
2018-12-25T07:24:48.943Z,1.64
2018-12-25T07:25:48.984Z,1.69
2018-12-25T07:26:49.022Z,1.64
2018-12-25T07:27:49.130Z,1.75
2018-12-25T07:28:49.115Z,1.79
2018-12-25T07:29:50.311Z,1.75
2018-12-25T07:30:49.182Z,1.76
2018-12-25T07:31:49.216Z,1.83
2018-12-25T07:32:49.282Z,1.94
2018-12-25T07:33:49.292Z,1.98
2018-12-25T07:34:49.332Z,1.94
2018-12-25T07:35:49.381Z,1.97
2018-12-25T07:36:49.424Z,1.97
2018-12-25T07:37:49.477Z,1.94
2018-12-25T07:38:49.499Z,1.99
2018-12-25T07:39:49.555Z,2.06
2018-12-25T07:40:49.571Z,2.04
2018-12-25T07:41:49.614Z,2.10
2018-12-25T07:42:49.644Z,2.12
2018-12-25T07:43:49.716Z,2.10
2018-12-25T07:44:49.746Z,2.12
2018-12-25T07:45:49.762Z,2.13
2018-12-25T07:46:49.803Z,2.06
2018-12-25T07:47:49.843Z,2.01
2018-12-25T07:48:49.907Z,2.06
2018-12-25T07:49:49.921Z,2.04
2018-12-25T07:50:49.996Z,2.09
2018-12-25T07:51:50.000Z,2.10
2018-12-25T07:52:50.063Z,2.09
2018-12-25T07:53:50.075Z,2.08
2018-12-25T07:54:50.138Z,2.15
2018-12-25T07:55:50.163Z,2.10
2018-12-25T07:56:50.194Z,2.22
2018-12-25T07:57:50.241Z,2.15
2018-12-25T07:58:50.271Z,2.15
2018-12-25T07:59:50.335Z,2.26
2018-12-25T08:00:50.361Z,2.23
2018-12-25T08:01:50.391Z,2.26
2018-12-25T08:02:50.432Z,2.27
2018-12-25T08:03:50.477Z,2.27
2018-12-25T08:04:50.533Z,2.28
2018-12-25T08:05:50.570Z,2.35
2018-12-25T08:06:50.588Z,2.27
2018-12-25T08:07:50.626Z,2.37
2018-12-25T08:08:50.670Z,2.34
2018-12-25T08:09:50.727Z,2.37
2018-12-25T08:10:50.744Z,2.33
2018-12-25T08:11:50.788Z,2.35
2018-12-25T08:12:50.847Z,2.33
2018-12-25T08:13:50.864Z,2.35
2018-12-25T08:14:50.925Z,2.40
2018-12-25T08:15:50.941Z,2.38
2018-12-25T08:16:51.853Z,2.38
2018-12-25T08:17:51.025Z,2.46
2018-12-25T08:18:51.057Z,2.55
2018-12-25T08:19:51.124Z,2.56
2018-12-25T08:20:51.160Z,2.55
2018-12-25T08:21:51.178Z,2.58
2018-12-25T08:22:51.216Z,2.64
2018-12-25T08:23:51.262Z,2.61
2018-12-25T08:24:51.305Z,2.74
2018-12-25T08:25:51.363Z,2.73
2018-12-25T08:26:51.387Z,2.66
2018-12-25T08:27:52.825Z,2.64
2018-12-25T08:28:51.460Z,2.64
2018-12-25T08:29:51.508Z,2.71
2018-12-25T08:30:51.556Z,2.77
2018-12-25T08:31:51.577Z,2.82
2018-12-25T08:32:51.640Z,2.87
2018-12-25T08:33:51.656Z,2.92
2018-12-25T08:34:51.703Z,2.97
2018-12-25T08:35:51.757Z,2.95
2018-12-25T08:36:51.798Z,3.05
2018-12-25T08:37:52.325Z,2.98
2018-12-25T08:38:51.865Z,3.13
2018-12-25T08:39:51.898Z,3.12
2018-12-25T08:40:52.639Z,3.15
2018-12-25T08:41:52.826Z,3.21
2018-12-25T08:42:52.163Z,3.25
2018-12-25T08:43:52.072Z,3.31
2018-12-25T08:44:52.098Z,3.44
2018-12-25T08:45:52.157Z,3.44
2018-12-25T08:46:52.199Z,3.67
2018-12-25T08:47:52.229Z,3.78
2018-12-25T08:48:52.263Z,3.78
2018-12-25T08:49:52.317Z,3.75
2018-12-25T08:50:52.340Z,3.76
2018-12-25T08:51:52.415Z,3.82
2018-12-25T08:52:52.421Z,3.72
2018-12-25T08:53:52.463Z,3.82
2018-12-25T08:54:52.504Z,3.79
2018-12-25T08:55:52.553Z,3.90
2018-12-25T08:56:52.614Z,3.88
2018-12-25T08:57:54.785Z,3.88
2018-12-25T08:58:52.669Z,3.97
2018-12-25T08:59:52.727Z,3.92
2018-12-25T09:00:52.753Z,4.00
2018-12-25T09:01:53.325Z,3.96
2018-12-25T09:02:52.830Z,4.00
2018-12-25T09:03:52.930Z,4.03
2018-12-25T09:04:52.934Z,4.12
2018-12-25T09:05:53.327Z,4.07
2018-12-25T09:06:53.035Z,4.12
2018-12-25T09:07:53.035Z,4.14
2018-12-25T09:08:53.076Z,4.03
2018-12-25T09:09:53.120Z,3.98
2018-12-25T09:10:53.165Z,4.03
2018-12-25T09:11:53.222Z,4.00
2018-12-25T09:12:53.261Z,3.97
2018-12-25T09:13:53.282Z,3.96
2018-12-25T09:14:53.410Z,3.98
2018-12-25T09:15:53.364Z,3.94
2018-12-25T09:16:54.325Z,3.97
2018-12-25T09:17:53.482Z,3.79
2018-12-25T09:18:53.493Z,3.90
2018-12-25T09:19:53.528Z,3.86
2018-12-25T09:20:53.580Z,3.89
2018-12-25T09:21:54.356Z,3.88
2018-12-25T09:22:53.672Z,3.96
2018-12-25T09:23:53.699Z,3.97
2018-12-25T09:24:53.738Z,3.96
2018-12-25T09:25:53.783Z,3.97
2018-12-25T09:26:53.820Z,4.01
2018-12-25T09:27:53.880Z,3.90
2018-12-25T09:28:53.903Z,3.96
2018-12-25T09:29:53.948Z,3.98
2018-12-25T09:30:53.986Z,4.03
2018-12-25T09:31:54.028Z,3.96
2018-12-25T09:32:54.106Z,4.01
2018-12-25T09:33:54.134Z,3.97
2018-12-25T09:34:54.151Z,3.98
2018-12-25T09:35:54.205Z,3.98
2018-12-25T09:36:54.247Z,4.10
2018-12-25T09:37:54.284Z,4.06
2018-12-25T09:38:54.337Z,4.03
2018-12-25T09:39:54.374Z,4.28
2018-12-25T09:40:56.262Z,4.19
2018-12-25T09:41:54.442Z,4.26
2018-12-25T09:42:54.480Z,4.22
2018-12-25T09:43:54.558Z,4.28
2018-12-25T09:44:54.722Z,4.18
2018-12-25T09:45:54.612Z,4.21
2018-12-25T09:46:54.684Z,4.22
2018-12-25T09:47:54.701Z,4.24
2018-12-25T09:48:54.767Z,4.19
2018-12-25T09:49:54.796Z,4.21
2018-12-25T09:50:54.815Z,4.19
2018-12-25T09:51:54.888Z,4.22
2018-12-25T09:52:54.905Z,4.22
2018-12-25T09:53:54.969Z,4.32
2018-12-25T09:54:55.002Z,4.37
2018-12-25T09:55:55.027Z,4.37
2018-12-25T09:56:55.082Z,4.46
2018-12-25T09:57:55.108Z,4.50
2018-12-25T09:58:55.158Z,4.55
2018-12-25T09:59:55.229Z,4.46
2018-12-25T10:00:55.236Z,4.62
2018-12-25T10:01:55.824Z,4.62
2018-12-25T10:02:55.326Z,4.51
2018-12-25T10:03:55.356Z,4.62
2018-12-25T10:04:56.614Z,4.57
2018-12-25T10:05:55.462Z,4.61
2018-12-25T10:06:55.485Z,4.46
2018-12-25T10:07:55.533Z,4.59
2018-12-25T10:08:55.574Z,4.62
2018-12-25T10:09:55.707Z,4.58
2018-12-25T10:10:55.676Z,4.50
2018-12-25T10:11:55.688Z,4.59
2018-12-25T10:12:55.744Z,4.65
2018-12-25T10:13:55.809Z,4.59
2018-12-25T10:14:56.332Z,4.65
2018-12-25T10:15:55.889Z,4.61
2018-12-25T10:16:57.831Z,4.64
2018-12-25T10:17:55.948Z,4.65
2018-12-25T10:18:55.987Z,4.69
2018-12-25T10:19:56.053Z,4.64
2018-12-25T10:20:56.106Z,4.67
2018-12-25T10:22:02.871Z,4.64
2018-12-25T10:22:57.841Z,4.73
2018-12-25T10:23:56.825Z,4.75
2018-12-25T10:24:56.243Z,4.73
2018-12-25T10:25:57.138Z,4.72
2018-12-25T10:26:56.823Z,4.70
2018-12-25T10:27:56.377Z,4.65
2018-12-25T10:28:56.409Z,4.72
2018-12-25T10:29:56.456Z,4.65
2018-12-25T10:30:56.533Z,4.58
2018-12-25T10:31:56.535Z,4.61
2018-12-25T10:32:56.579Z,4.62
2018-12-25T10:33:56.621Z,4.64
2018-12-25T10:34:56.692Z,4.61
2018-12-25T10:35:56.726Z,4.61
2018-12-25T10:36:56.748Z,4.65
2018-12-25T10:37:56.790Z,4.54
2018-12-25T10:38:56.831Z,4.47
2018-12-25T10:39:56.890Z,4.47
2018-12-25T10:40:57.357Z,4.58
2018-12-25T10:41:57.000Z,4.54
2018-12-25T10:42:56.997Z,4.64
2018-12-25T10:43:57.055Z,4.57
2018-12-25T10:44:57.087Z,4.59
2018-12-25T10:45:57.826Z,4.62
2018-12-25T10:46:57.189Z,4.58
2018-12-25T10:47:57.218Z,4.47
2018-12-25T10:48:57.322Z,4.47
2018-12-25T10:49:57.298Z,4.52
2018-12-25T10:50:58.831Z,4.57
2018-12-25T10:51:59.322Z,4.51
2018-12-25T10:52:58.321Z,4.46
2018-12-25T10:53:57.468Z,4.52
2018-12-25T10:54:57.501Z,4.40
2018-12-25T10:55:57.546Z,4.40
2018-12-25T10:56:57.625Z,4.37
2018-12-25T10:57:57.656Z,4.47
2018-12-25T10:58:57.674Z,4.46
2018-12-25T10:59:57.717Z,4.51
2018-12-25T11:00:57.758Z,4.42
2018-12-25T11:01:57.799Z,4.52
2018-12-25T11:02:57.881Z,4.40
2018-12-25T11:03:57.890Z,4.52
2018-12-25T11:04:58.353Z,4.62
2018-12-25T11:05:58.825Z,4.67
2018-12-25T11:06:59.823Z,4.69
2018-12-25T11:07:58.160Z,4.72
2018-12-25T11:08:58.104Z,4.72
2018-12-25T11:10:00.822Z,4.75
2018-12-25T11:10:59.835Z,4.61
2018-12-25T11:11:58.232Z,4.79
2018-12-25T11:12:59.322Z,4.75
2018-12-25T11:13:58.822Z,4.72
2018-12-25T11:14:58.341Z,4.67
2018-12-25T11:15:58.389Z,4.67
2018-12-25T11:16:58.428Z,4.61
2018-12-25T11:17:58.494Z,4.46
2018-12-25T11:18:59.343Z,4.51
2018-12-25T11:19:58.554Z,4.58
2018-12-25T11:21:03.832Z,4.55
2018-12-25T11:21:58.635Z,4.50
2018-12-25T11:22:59.360Z,4.54
2018-12-25T11:24:00.330Z,4.44
2018-12-25T11:24:58.768Z,4.54
2018-12-25T11:25:58.814Z,4.50
2018-12-25T11:26:58.850Z,4.43
2018-12-25T11:27:58.934Z,4.39
2018-12-25T11:28:58.946Z,4.46
2018-12-25T11:30:00.823Z,4.40
2018-12-25T11:30:59.866Z,4.39
2018-12-25T11:31:59.065Z,4.34
2018-12-25T11:33:00.823Z,4.37
2018-12-25T11:33:59.831Z,4.43
2018-12-25T11:34:59.204Z,4.42
2018-12-25T11:35:59.824Z,4.39
2018-12-25T11:36:59.317Z,4.43
2018-12-25T11:37:59.335Z,4.40
2018-12-25T11:38:59.377Z,4.40
2018-12-25T11:39:59.396Z,4.40
2018-12-25T11:40:59.438Z,4.33
2018-12-25T11:41:59.493Z,4.32
2018-12-25T11:42:59.520Z,4.29
2018-12-25T11:43:59.696Z,4.34
2018-12-25T11:44:59.609Z,4.33
2018-12-25T11:45:59.644Z,4.32
2018-12-25T11:46:59.686Z,4.32
2018-12-25T11:47:59.735Z,4.33
2018-12-25T11:48:59.804Z,4.36
2018-12-25T11:49:59.844Z,4.33
2018-12-25T11:51:01.324Z,4.25
2018-12-25T11:51:59.903Z,4.36
2018-12-25T11:52:59.937Z,4.16
2018-12-25T11:54:00.633Z,4.18
2018-12-25T11:55:00.094Z,4.19
2018-12-25T11:56:00.064Z,4.18
2018-12-25T11:57:00.112Z,4.18
2018-12-25T11:58:00.156Z,4.19
2018-12-25T11:59:00.198Z,4.25
2018-12-25T12:00:00.261Z,4.32
2018-12-25T12:01:00.293Z,4.29
2018-12-25T12:02:00.313Z,4.25
2018-12-25T12:03:00.359Z,4.32
2018-12-25T12:04:00.401Z,4.29
2018-12-25T12:05:01.324Z,4.25
2018-12-25T12:06:00.527Z,4.16
2018-12-25T12:07:00.535Z,4.14
2018-12-25T12:08:01.322Z,4.16
2018-12-25T12:09:00.631Z,4.28
2018-12-25T12:10:00.695Z,4.22
2018-12-25T12:11:00.688Z,4.32
2018-12-25T12:12:00.735Z,4.19
2018-12-25T12:13:01.362Z,4.26
2018-12-25T12:14:00.826Z,4.28
2018-12-25T12:15:00.887Z,4.24
2018-12-25T12:16:00.902Z,4.15
2018-12-25T12:17:01.822Z,4.19
2018-12-25T12:18:00.981Z,4.19
2018-12-25T12:19:01.645Z,4.28
2018-12-25T12:20:01.093Z,4.26
2018-12-25T12:21:01.110Z,4.28
2018-12-25T12:22:01.174Z,4.28
2018-12-25T12:23:01.328Z,4.25
2018-12-25T12:24:01.230Z,4.16
2018-12-25T12:25:01.272Z,4.21
2018-12-25T12:26:01.342Z,4.18
2018-12-25T12:27:01.368Z,4.21
2018-12-25T12:28:01.400Z,4.28
2018-12-25T12:29:01.438Z,4.16
2018-12-25T12:30:01.495Z,4.22
2018-12-25T12:31:01.552Z,4.26
2018-12-25T12:32:01.587Z,4.26
2018-12-25T12:33:01.615Z,4.19
2018-12-25T12:34:01.651Z,4.25
2018-12-25T12:35:01.688Z,4.21
2018-12-25T12:36:01.746Z,4.22
2018-12-25T12:37:01.792Z,4.19
2018-12-25T12:38:01.826Z,4.19
2018-12-25T12:39:01.909Z,4.36
2018-12-25T12:40:01.896Z,4.34
2018-12-25T12:41:01.953Z,4.34
2018-12-25T12:42:02.010Z,4.34
2018-12-25T12:43:02.033Z,4.40
2018-12-25T12:44:02.063Z,4.39
2018-12-25T12:45:02.108Z,4.42
2018-12-25T12:46:02.156Z,4.37
2018-12-25T12:47:02.218Z,4.39
2018-12-25T12:48:02.246Z,4.29
2018-12-25T12:49:02.858Z,4.12
2018-12-25T12:50:02.319Z,3.98
2018-12-25T12:51:02.365Z,4.01
2018-12-25T12:52:02.440Z,3.89
2018-12-25T12:53:02.455Z,3.82
2018-12-25T12:54:02.482Z,3.79
2018-12-25T12:55:02.525Z,3.80
2018-12-25T12:56:02.562Z,3.94
2018-12-25T12:57:02.736Z,3.88
2018-12-25T12:58:02.651Z,4.00
2018-12-25T12:59:02.691Z,4.03
2018-12-25T13:00:03.321Z,4.06
2018-12-25T13:01:02.777Z,4.00
2018-12-25T13:02:02.851Z,4.08
2018-12-25T13:03:02.856Z,4.07
2018-12-25T13:04:02.896Z,4.07
2018-12-25T13:05:02.935Z,4.16
2018-12-25T13:06:02.994Z,4.06
2018-12-25T13:07:03.075Z,4.08
2018-12-25T13:08:03.068Z,4.14
2018-12-25T13:09:03.103Z,4.14
2018-12-25T13:10:03.142Z,4.15
2018-12-25T13:11:03.220Z,4.03
2018-12-25T13:12:03.248Z,4.14
2018-12-25T13:13:03.297Z,4.03
2018-12-25T13:14:03.318Z,4.07
2018-12-25T13:15:03.356Z,4.12
2018-12-25T13:16:03.409Z,4.03
2018-12-25T13:17:03.433Z,4.10
2018-12-25T13:18:03.597Z,4.03
2018-12-25T13:19:03.519Z,4.12